Terminal Aerodrome Forecast
Issued by NWS Boston, MA

Home | Current Version | Previous Version | Text Only | Print | Product List | Glossary On
Versions: 1 2 3 4 5 6 7 8 9 10 11 12 13 14 15 16 17 18 19 20 21 22 23 24 25 26 27 28 29 30 31 32 33 34 35 36 37 38 39 40 41 42 43 44 45 46 47
000
FTUS41 KBOX 172339
TAFBDL
TAF
KBDL 172339Z 1800/1906 30009KT P6SM SCT025 BKN040
     FM180900 28010G22KT P6SM BKN025
     FM181100 28010G20KT P6SM BKN045
     FM182100 31011G23KT P6SM SCT050
     FM182300 31009KT P6SM SCT050=

USA.gov is the U.S. government's official web portal to all federal, state and local government web resources and services.